< < Back
Terminal Aerodrome Forecast


Current Version              Previous Versions:   1  2  3  4  5  6  7  8  9  

Terminal Aerodrome Forecast

758
FTUS42 KILM 210900 AAA
TAFFLO
TAF AMD
KFLO 210928Z 2109/2206 VRB02KT P6SM SCT040
      TEMPO 2109/2112 2SM BR
     FM211300 28007KT P6SM FEW060
     FM220300 34009G15KT P6SM SCT060=



Latest METAR

560
SAUS70 KWBC 212000 RRA
MTRFLO
METAR KFLO 211953Z AUTO 25010KT 10SM CLR 26/08 A2984 RMK AO2 SLP103
T02560083 TSNO


USA.gov is the U.S. government's official web portal to all federal, state and local government web resources and services.